Аэропорт: Витязево. Анапа

ICAO: URKA

METAR:
2021-01-20 02:30:00
URKA 200230Z AUTO 14003MPS 9999 // ///053/// M12/M14 Q1023 RMK QFE763/1018
METAR:
2021-01-19 16:55:00
TAF URKA 191655Z 1918/2018 35003G08MPS 6000 SCT030CB TEMPO 1918/2006 3100 -SHSN BR BKN011 BKN020CB PROB40 1918/2006 0500 FZFG BKN002